sensor_id;sensor_type;location;lat;lon;timestamp;P1;durP1;ratioP1;P2;durP2;ratioP2
52294;SDS011;38243;53.212;6.574;2023-05-02T00:00:28;2.47;;;1.50;;
52294;SDS011;38243;53.212;6.574;2023-05-02T00:02:55;2.75;;;1.40;;
52294;SDS011;38243;53.212;6.574;2023-05-02T00:05:21;2.53;;;1.30;;
52294;SDS011;38243;53.212;6.574;2023-05-02T00:07:47;2.65;;;1.60;;
52294;SDS011;38243;53.212;6.574;2023-05-02T00:10:12;3.33;;;1.43;;
52294;SDS011;38243;53.212;6.574;2023-05-02T00:12:38;3.88;;;1.27;;
52294;SDS011;38243;53.212;6.574;2023-05-02T00:15:04;3.63;;;1.27;;
52294;SDS011;38243;53.212;6.574;2023-05-02T00:17:30;2.93;;;1.20;;
52294;SDS011;38243;53.212;6.574;2023-05-02T00:19:56;3.88;;;1.42;;
52294;SDS011;38243;53.212;6.574;2023-05-02T00:22:23;2.88;;;1.20;;
52294;SDS011;38243;53.212;6.574;2023-05-02T00:24:48;5.43;;;1.48;;
52294;SDS011;38243;53.212;6.574;2023-05-02T00:27:14;6.87;;;1.60;;
52294;SDS011;38243;53.212;6.574;2023-05-02T00:29:40;3.80;;;1.40;;
52294;SDS011;38243;53.212;6.574;2023-05-02T00:32:06;2.42;;;1.25;;
52294;SDS011;38243;53.212;6.574;2023-05-02T00:34:32;3.92;;;1.52;;
52294;SDS011;38243;53.212;6.574;2023-05-02T00:36:58;5.05;;;1.48;;
52294;SDS011;38243;53.212;6.574;2023-05-02T00:39:23;5.15;;;1.70;;
52294;SDS011;38243;53.212;6.574;2023-05-02T00:41:58;3.28;;;1.27;;
52294;SDS011;38243;53.212;6.574;2023-05-02T00:44:24;6.38;;;1.48;;
52294;SDS011;38243;53.212;6.574;2023-05-02T00:46:50;4.97;;;1.17;;
52294;SDS011;38243;53.212;6.574;2023-05-02T00:49:17;3.90;;;1.20;;
52294;SDS011;38243;53.212;6.574;2023-05-02T00:51:44;3.57;;;1.10;;
52294;SDS011;38243;53.212;6.574;2023-05-02T00:54:10;5.20;;;1.40;;
52294;SDS011;38243;53.212;6.574;2023-05-02T00:56:39;3.55;;;1.10;;
52294;SDS011;38243;53.212;6.574;2023-05-02T00:59:06;3.37;;;1.47;;
52294;SDS011;38243;53.212;6.574;2023-05-02T01:09:36;6.82;;;1.20;;
52294;SDS011;38243;53.212;6.574;2023-05-02T01:14:56;4.15;;;1.40;;
52294;SDS011;38243;53.212;6.574;2023-05-02T01:17:25;4.40;;;1.40;;
52294;SDS011;38243;53.212;6.574;2023-05-02T01:19:57;6.93;;;1.50;;
52294;SDS011;38243;53.212;6.574;2023-05-02T01:22:27;8.95;;;1.98;;
52294;SDS011;38243;53.212;6.574;2023-05-02T01:30:49;8.37;;;2.30;;
52294;SDS011;38243;53.212;6.574;2023-05-02T01:33:16;8.33;;;1.50;;
52294;SDS011;38243;53.212;6.574;2023-05-02T01:35:45;7.60;;;1.67;;
52294;SDS011;38243;53.212;6.574;2023-05-02T01:38:14;8.07;;;1.50;;
52294;SDS011;38243;53.212;6.574;2023-05-02T01:40:43;7.53;;;1.48;;
52294;SDS011;38243;53.212;6.574;2023-05-02T01:43:11;7.38;;;1.45;;
52294;SDS011;38243;53.212;6.574;2023-05-02T01:45:38;4.97;;;1.42;;
52294;SDS011;38243;53.212;6.574;2023-05-02T01:48:07;7.32;;;1.40;;
52294;SDS011;38243;53.212;6.574;2023-05-02T01:50:35;3.90;;;1.45;;
52294;SDS011;38243;53.212;6.574;2023-05-02T01:53:01;4.97;;;1.50;;
52294;SDS011;38243;53.212;6.574;2023-05-02T01:55:28;6.63;;;1.40;;
52294;SDS011;38243;53.212;6.574;2023-05-02T01:57:57;8.43;;;1.30;;
52294;SDS011;38243;53.212;6.574;2023-05-02T02:00:25;5.05;;;1.33;;
52294;SDS011;38243;53.212;6.574;2023-05-02T02:02:51;6.40;;;1.60;;
52294;SDS011;38243;53.212;6.574;2023-05-02T02:05:19;6.53;;;1.60;;
52294;SDS011;38243;53.212;6.574;2023-05-02T02:07:47;3.80;;;0.98;;
52294;SDS011;38243;53.212;6.574;2023-05-02T02:10:13;5.32;;;1.20;;
52294;SDS011;38243;53.212;6.574;2023-05-02T02:12:48;3.97;;;1.30;;
52294;SDS011;38243;53.212;6.574;2023-05-02T02:15:18;4.60;;;1.42;;
52294;SDS011;38243;53.212;6.574;2023-05-02T02:20:28;3.63;;;1.20;;
52294;SDS011;38243;53.212;6.574;2023-05-02T02:22:56;4.43;;;1.35;;
52294;SDS011;38243;53.212;6.574;2023-05-02T02:25:23;3.53;;;1.20;;
52294;SDS011;38243;53.212;6.574;2023-05-02T02:27:51;5.32;;;1.30;;
52294;SDS011;38243;53.212;6.574;2023-05-02T02:30:17;4.75;;;1.35;;
52294;SDS011;38243;53.212;6.574;2023-05-02T02:32:43;6.07;;;1.40;;
52294;SDS011;38243;53.212;6.574;2023-05-02T02:35:08;4.30;;;1.33;;
52294;SDS011;38243;53.212;6.574;2023-05-02T02:37:53;5.78;;;1.30;;
52294;SDS011;38243;53.212;6.574;2023-05-02T02:40:37;5.63;;;1.30;;
52294;SDS011;38243;53.212;6.574;2023-05-02T02:45:47;3.58;;;1.60;;
52294;SDS011;38243;53.212;6.574;2023-05-02T02:48:37;4.53;;;1.40;;
52294;SDS011;38243;53.212;6.574;2023-05-02T02:51:13;5.37;;;1.63;;
52294;SDS011;38243;53.212;6.574;2023-05-02T02:53:57;5.13;;;1.42;;
52294;SDS011;38243;53.212;6.574;2023-05-02T02:56:40;4.53;;;1.38;;
52294;SDS011;38243;53.212;6.574;2023-05-02T02:59:26;4.32;;;1.40;;
52294;SDS011;38243;53.212;6.574;2023-05-02T03:02:16;4.97;;;1.80;;
52294;SDS011;38243;53.212;6.574;2023-05-02T03:04:44;4.72;;;1.40;;
52294;SDS011;38243;53.212;6.574;2023-05-02T03:07:11;4.32;;;1.30;;
52294;SDS011;38243;53.212;6.574;2023-05-02T03:09:44;4.80;;;1.40;;
52294;SDS011;38243;53.212;6.574;2023-05-02T03:12:11;3.50;;;1.10;;
52294;SDS011;38243;53.212;6.574;2023-05-02T03:14:37;3.55;;;1.30;;
52294;SDS011;38243;53.212;6.574;2023-05-02T03:17:04;4.13;;;1.20;;
52294;SDS011;38243;53.212;6.574;2023-05-02T03:19:32;5.53;;;1.50;;
52294;SDS011;38243;53.212;6.574;2023-05-02T03:21:58;4.75;;;1.55;;
52294;SDS011;38243;53.212;6.574;2023-05-02T03:24:24;5.63;;;1.42;;
52294;SDS011;38243;53.212;6.574;2023-05-02T03:26:55;3.25;;;1.33;;
52294;SDS011;38243;53.212;6.574;2023-05-02T03:29:21;3.80;;;1.20;;
52294;SDS011;38243;53.212;6.574;2023-05-02T03:31:47;4.22;;;1.27;;
52294;SDS011;38243;53.212;6.574;2023-05-02T03:34:13;4.35;;;1.38;;
52294;SDS011;38243;53.212;6.574;2023-05-02T03:36:39;4.30;;;1.57;;
52294;SDS011;38243;53.212;6.574;2023-05-02T03:39:04;4.35;;;1.50;;
52294;SDS011;38243;53.212;6.574;2023-05-02T03:41:30;4.65;;;1.30;;
52294;SDS011;38243;53.212;6.574;2023-05-02T03:43:56;3.95;;;1.15;;
52294;SDS011;38243;53.212;6.574;2023-05-02T03:46:22;4.33;;;1.30;;
52294;SDS011;38243;53.212;6.574;2023-05-02T03:48:48;3.15;;;1.30;;
52294;SDS011;38243;53.212;6.574;2023-05-02T03:51:14;3.88;;;1.42;;
52294;SDS011;38243;53.212;6.574;2023-05-02T03:53:40;4.27;;;1.30;;
52294;SDS011;38243;53.212;6.574;2023-05-02T03:56:06;2.70;;;1.10;;
52294;SDS011;38243;53.212;6.574;2023-05-02T03:58:33;3.45;;;1.20;;
52294;SDS011;38243;53.212;6.574;2023-05-02T04:01:00;4.60;;;1.30;;
52294;SDS011;38243;53.212;6.574;2023-05-02T04:03:26;4.00;;;1.20;;
52294;SDS011;38243;53.212;6.574;2023-05-02T04:05:53;4.47;;;1.20;;
52294;SDS011;38243;53.212;6.574;2023-05-02T04:08:18;4.33;;;1.20;;
52294;SDS011;38243;53.212;6.574;2023-05-02T04:10:44;4.15;;;1.20;;
52294;SDS011;38243;53.212;6.574;2023-05-02T04:13:10;3.22;;;1.27;;
52294;SDS011;38243;53.212;6.574;2023-05-02T04:15:36;2.90;;;0.90;;
52294;SDS011;38243;53.212;6.574;2023-05-02T04:18:02;4.38;;;1.25;;
52294;SDS011;38243;53.212;6.574;2023-05-02T04:20:28;3.05;;;1.35;;
52294;SDS011;38243;53.212;6.574;2023-05-02T04:22:54;4.27;;;1.10;;
52294;SDS011;38243;53.212;6.574;2023-05-02T04:25:20;3.45;;;1.10;;
52294;SDS011;38243;53.212;6.574;2023-05-02T04:27:45;3.67;;;1.20;;
52294;SDS011;38243;53.212;6.574;2023-05-02T04:30:11;2.60;;;1.10;;
52294;SDS011;38243;53.212;6.574;2023-05-02T04:32:38;4.07;;;1.20;;
52294;SDS011;38243;53.212;6.574;2023-05-02T04:35:04;2.85;;;1.20;;
52294;SDS011;38243;53.212;6.574;2023-05-02T04:37:30;3.30;;;0.93;;
52294;SDS011;38243;53.212;6.574;2023-05-02T04:39:56;2.00;;;0.90;;
52294;SDS011;38243;53.212;6.574;2023-05-02T04:42:22;4.57;;;1.20;;
52294;SDS011;38243;53.212;6.574;2023-05-02T04:44:48;3.03;;;1.07;;
52294;SDS011;38243;53.212;6.574;2023-05-02T04:47:14;3.35;;;1.00;;
52294;SDS011;38243;53.212;6.574;2023-05-02T04:49:40;2.35;;;0.80;;
52294;SDS011;38243;53.212;6.574;2023-05-02T04:52:07;2.53;;;0.90;;
52294;SDS011;38243;53.212;6.574;2023-05-02T04:54:34;2.25;;;0.80;;
52294;SDS011;38243;53.212;6.574;2023-05-02T04:57:00;3.67;;;0.85;;
52294;SDS011;38243;53.212;6.574;2023-05-02T04:59:28;3.25;;;1.00;;
52294;SDS011;38243;53.212;6.574;2023-05-02T05:01:54;2.38;;;1.05;;
52294;SDS011;38243;53.212;6.574;2023-05-02T05:04:21;2.58;;;1.00;;
52294;SDS011;38243;53.212;6.574;2023-05-02T05:06:47;2.57;;;0.83;;
52294;SDS011;38243;53.212;6.574;2023-05-02T05:09:13;2.95;;;0.80;;
52294;SDS011;38243;53.212;6.574;2023-05-02T05:11:39;2.80;;;0.90;;
52294;SDS011;38243;53.212;6.574;2023-05-02T05:14:07;3.07;;;1.13;;
52294;SDS011;38243;53.212;6.574;2023-05-02T05:16:33;3.10;;;0.98;;
52294;SDS011;38243;53.212;6.574;2023-05-02T05:18:59;2.85;;;1.02;;
52294;SDS011;38243;53.212;6.574;2023-05-02T05:21:25;2.63;;;0.77;;
52294;SDS011;38243;53.212;6.574;2023-05-02T05:23:51;4.05;;;0.90;;
52294;SDS011;38243;53.212;6.574;2023-05-02T05:26:17;2.42;;;0.85;;
52294;SDS011;38243;53.212;6.574;2023-05-02T05:28:43;3.40;;;1.00;;
52294;SDS011;38243;53.212;6.574;2023-05-02T05:31:12;2.50;;;0.80;;
52294;SDS011;38243;53.212;6.574;2023-05-02T05:33:41;3.83;;;0.93;;
52294;SDS011;38243;53.212;6.574;2023-05-02T05:36:07;3.05;;;0.98;;
52294;SDS011;38243;53.212;6.574;2023-05-02T05:38:38;4.90;;;0.90;;
52294;SDS011;38243;53.212;6.574;2023-05-02T05:41:04;2.05;;;0.90;;
52294;SDS011;38243;53.212;6.574;2023-05-02T05:43:31;3.85;;;1.00;;
52294;SDS011;38243;53.212;6.574;2023-05-02T05:45:58;5.03;;;1.15;;
52294;SDS011;38243;53.212;6.574;2023-05-02T05:48:24;2.40;;;0.93;;
52294;SDS011;38243;53.212;6.574;2023-05-02T05:50:50;2.45;;;1.10;;
52294;SDS011;38243;53.212;6.574;2023-05-02T05:53:16;2.25;;;1.00;;
52294;SDS011;38243;53.212;6.574;2023-05-02T05:55:43;3.67;;;0.88;;
52294;SDS011;38243;53.212;6.574;2023-05-02T05:58:08;1.85;;;0.90;;
52294;SDS011;38243;53.212;6.574;2023-05-02T06:00:35;3.10;;;1.10;;
52294;SDS011;38243;53.212;6.574;2023-05-02T06:03:01;2.00;;;1.05;;
52294;SDS011;38243;53.212;6.574;2023-05-02T06:05:28;1.85;;;0.90;;
52294;SDS011;38243;53.212;6.574;2023-05-02T06:07:54;3.38;;;1.00;;
52294;SDS011;38243;53.212;6.574;2023-05-02T06:10:23;3.38;;;0.93;;
52294;SDS011;38243;53.212;6.574;2023-05-02T06:12:49;1.85;;;0.85;;
52294;SDS011;38243;53.212;6.574;2023-05-02T06:15:15;3.63;;;1.10;;
52294;SDS011;38243;53.212;6.574;2023-05-02T06:17:41;3.85;;;1.00;;
52294;SDS011;38243;53.212;6.574;2023-05-02T06:20:07;3.63;;;1.00;;
52294;SDS011;38243;53.212;6.574;2023-05-02T06:22:33;3.30;;;1.00;;
52294;SDS011;38243;53.212;6.574;2023-05-02T06:24:59;2.42;;;0.88;;
52294;SDS011;38243;53.212;6.574;2023-05-02T06:27:25;4.03;;;1.13;;
52294;SDS011;38243;53.212;6.574;2023-05-02T06:29:51;3.73;;;1.00;;
52294;SDS011;38243;53.212;6.574;2023-05-02T06:32:17;3.08;;;1.10;;
52294;SDS011;38243;53.212;6.574;2023-05-02T06:34:43;5.22;;;1.10;;
52294;SDS011;38243;53.212;6.574;2023-05-02T06:37:09;1.60;;;0.90;;
52294;SDS011;38243;53.212;6.574;2023-05-02T06:39:35;3.10;;;0.98;;
52294;SDS011;38243;53.212;6.574;2023-05-02T06:42:01;2.90;;;0.90;;
52294;SDS011;38243;53.212;6.574;2023-05-02T06:44:27;2.55;;;1.10;;
52294;SDS011;38243;53.212;6.574;2023-05-02T06:46:53;2.90;;;1.20;;
52294;SDS011;38243;53.212;6.574;2023-05-02T06:49:22;1.83;;;0.82;;
52294;SDS011;38243;53.212;6.574;2023-05-02T06:51:47;2.28;;;0.90;;
52294;SDS011;38243;53.212;6.574;2023-05-02T06:54:13;2.40;;;1.00;;
52294;SDS011;38243;53.212;6.574;2023-05-02T06:56:40;2.65;;;0.88;;
52294;SDS011;38243;53.212;6.574;2023-05-02T06:59:06;1.88;;;0.90;;
52294;SDS011;38243;53.212;6.574;2023-05-02T07:01:31;2.97;;;1.10;;
52294;SDS011;38243;53.212;6.574;2023-05-02T07:03:57;4.07;;;1.10;;
52294;SDS011;38243;53.212;6.574;2023-05-02T07:06:23;2.03;;;0.90;;
52294;SDS011;38243;53.212;6.574;2023-05-02T07:08:49;3.17;;;1.00;;
52294;SDS011;38243;53.212;6.574;2023-05-02T07:11:14;2.57;;;1.00;;
52294;SDS011;38243;53.212;6.574;2023-05-02T07:13:40;3.88;;;1.13;;
52294;SDS011;38243;53.212;6.574;2023-05-02T07:16:06;3.17;;;1.40;;
52294;SDS011;38243;53.212;6.574;2023-05-02T07:18:32;3.95;;;1.60;;
52294;SDS011;38243;53.212;6.574;2023-05-02T07:20:57;5.33;;;1.20;;
52294;SDS011;38243;53.212;6.574;2023-05-02T07:23:25;5.22;;;1.33;;
52294;SDS011;38243;53.212;6.574;2023-05-02T07:25:51;4.23;;;0.97;;
52294;SDS011;38243;53.212;6.574;2023-05-02T07:28:16;2.85;;;1.08;;
52294;SDS011;38243;53.212;6.574;2023-05-02T07:30:42;4.70;;;1.23;;
52294;SDS011;38243;53.212;6.574;2023-05-02T07:33:08;6.40;;;1.52;;
52294;SDS011;38243;53.212;6.574;2023-05-02T07:35:34;3.97;;;1.30;;
52294;SDS011;38243;53.212;6.574;2023-05-02T07:37:59;5.22;;;1.23;;
52294;SDS011;38243;53.212;6.574;2023-05-02T07:40:25;6.63;;;1.37;;
52294;SDS011;38243;53.212;6.574;2023-05-02T07:42:52;5.53;;;1.30;;
52294;SDS011;38243;53.212;6.574;2023-05-02T07:45:18;7.18;;;1.45;;
52294;SDS011;38243;53.212;6.574;2023-05-02T07:47:44;6.38;;;1.30;;
52294;SDS011;38243;53.212;6.574;2023-05-02T07:50:11;6.90;;;1.60;;
52294;SDS011;38243;53.212;6.574;2023-05-02T07:52:36;7.53;;;1.08;;
52294;SDS011;38243;53.212;6.574;2023-05-02T07:55:02;3.75;;;1.23;;
52294;SDS011;38243;53.212;6.574;2023-05-02T07:57:29;4.17;;;1.03;;
52294;SDS011;38243;53.212;6.574;2023-05-02T07:59:55;4.00;;;1.27;;
52294;SDS011;38243;53.212;6.574;2023-05-02T08:02:23;3.45;;;1.20;;
52294;SDS011;38243;53.212;6.574;2023-05-02T08:04:50;4.93;;;1.30;;
52294;SDS011;38243;53.212;6.574;2023-05-02T08:07:15;4.20;;;1.30;;
52294;SDS011;38243;53.212;6.574;2023-05-02T08:09:41;6.00;;;1.38;;
52294;SDS011;38243;53.212;6.574;2023-05-02T08:12:07;4.97;;;1.50;;
52294;SDS011;38243;53.212;6.574;2023-05-02T08:14:32;5.25;;;1.48;;
52294;SDS011;38243;53.212;6.574;2023-05-02T08:16:58;4.67;;;1.20;;
52294;SDS011;38243;53.212;6.574;2023-05-02T08:19:24;5.00;;;1.20;;
52294;SDS011;38243;53.212;6.574;2023-05-02T08:21:52;3.53;;;0.85;;
52294;SDS011;38243;53.212;6.574;2023-05-02T08:24:18;2.85;;;1.00;;
52294;SDS011;38243;53.212;6.574;2023-05-02T08:26:44;5.07;;;1.27;;
52294;SDS011;38243;53.212;6.574;2023-05-02T08:29:10;4.60;;;1.20;;
52294;SDS011;38243;53.212;6.574;2023-05-02T08:31:37;5.10;;;1.10;;
52294;SDS011;38243;53.212;6.574;2023-05-02T08:34:04;2.05;;;0.80;;
52294;SDS011;38243;53.212;6.574;2023-05-02T08:36:30;3.80;;;0.90;;
52294;SDS011;38243;53.212;6.574;2023-05-02T08:38:56;3.47;;;1.00;;
52294;SDS011;38243;53.212;6.574;2023-05-02T08:41:22;2.43;;;0.80;;
52294;SDS011;38243;53.212;6.574;2023-05-02T08:43:48;3.03;;;0.70;;
52294;SDS011;38243;53.212;6.574;2023-05-02T08:46:14;2.63;;;1.00;;
52294;SDS011;38243;53.212;6.574;2023-05-02T08:48:41;2.72;;;0.77;;
52294;SDS011;38243;53.212;6.574;2023-05-02T08:51:09;3.28;;;0.80;;
52294;SDS011;38243;53.212;6.574;2023-05-02T08:53:39;1.83;;;0.70;;
52294;SDS011;38243;53.212;6.574;2023-05-02T08:56:05;3.73;;;0.77;;
52294;SDS011;38243;53.212;6.574;2023-05-02T08:58:32;2.95;;;0.73;;
52294;SDS011;38243;53.212;6.574;2023-05-02T09:00:59;1.98;;;0.70;;
52294;SDS011;38243;53.212;6.574;2023-05-02T09:03:30;3.15;;;0.80;;
52294;SDS011;38243;53.212;6.574;2023-05-02T09:06:04;2.40;;;0.80;;
52294;SDS011;38243;53.212;6.574;2023-05-02T09:08:36;4.63;;;1.00;;
52294;SDS011;38243;53.212;6.574;2023-05-02T09:11:03;1.90;;;0.75;;
52294;SDS011;38243;53.212;6.574;2023-05-02T09:13:33;2.17;;;0.77;;
52294;SDS011;38243;53.212;6.574;2023-05-02T09:16:08;2.40;;;0.80;;
52294;SDS011;38243;53.212;6.574;2023-05-02T09:18:47;2.50;;;0.70;;
52294;SDS011;38243;53.212;6.574;2023-05-02T09:21:18;2.53;;;0.80;;
52294;SDS011;38243;53.212;6.574;2023-05-02T09:23:53;2.88;;;0.68;;
52294;SDS011;38243;53.212;6.574;2023-05-02T09:26:22;4.25;;;0.80;;
52294;SDS011;38243;53.212;6.574;2023-05-02T09:28:55;2.45;;;0.80;;
52294;SDS011;38243;53.212;6.574;2023-05-02T09:31:25;3.00;;;0.70;;
52294;SDS011;38243;53.212;6.574;2023-05-02T09:34:08;2.85;;;0.90;;
52294;SDS011;38243;53.212;6.574;2023-05-02T09:36:47;4.90;;;0.70;;
52294;SDS011;38243;53.212;6.574;2023-05-02T09:39:25;4.00;;;0.70;;
52294;SDS011;38243;53.212;6.574;2023-05-02T09:41:55;2.15;;;0.70;;
52294;SDS011;38243;53.212;6.574;2023-05-02T09:44:26;2.10;;;0.60;;
52294;SDS011;38243;53.212;6.574;2023-05-02T09:47:00;2.67;;;0.75;;
52294;SDS011;38243;53.212;6.574;2023-05-02T09:49:47;1.65;;;0.80;;
52294;SDS011;38243;53.212;6.574;2023-05-02T09:52:14;3.03;;;0.77;;
52294;SDS011;38243;53.212;6.574;2023-05-02T09:54:41;1.83;;;0.55;;
52294;SDS011;38243;53.212;6.574;2023-05-02T09:57:07;1.25;;;0.60;;
52294;SDS011;38243;53.212;6.574;2023-05-02T09:59:35;1.77;;;0.60;;
52294;SDS011;38243;53.212;6.574;2023-05-02T10:02:01;2.15;;;0.60;;
52294;SDS011;38243;53.212;6.574;2023-05-02T10:04:29;1.80;;;0.60;;
52294;SDS011;38243;53.212;6.574;2023-05-02T10:06:56;2.53;;;0.60;;
52294;SDS011;38243;53.212;6.574;2023-05-02T10:09:22;1.35;;;0.60;;
52294;SDS011;38243;53.212;6.574;2023-05-02T10:11:50;3.35;;;0.80;;
52294;SDS011;38243;53.212;6.574;2023-05-02T10:14:21;1.65;;;0.50;;
52294;SDS011;38243;53.212;6.574;2023-05-02T10:17:04;2.13;;;0.50;;
52294;SDS011;38243;53.212;6.574;2023-05-02T10:20:09;1.88;;;0.50;;
52294;SDS011;38243;53.212;6.574;2023-05-02T10:22:29;1.30;;;0.50;;
52294;SDS011;38243;53.212;6.574;2023-05-02T10:24:56;2.10;;;0.60;;
52294;SDS011;38243;53.212;6.574;2023-05-02T10:27:23;1.35;;;0.50;;
52294;SDS011;38243;53.212;6.574;2023-05-02T10:29:50;2.92;;;0.70;;
52294;SDS011;38243;53.212;6.574;2023-05-02T10:32:17;1.40;;;0.60;;
52294;SDS011;38243;53.212;6.574;2023-05-02T10:34:43;2.17;;;0.68;;
52294;SDS011;38243;53.212;6.574;2023-05-02T10:37:11;1.75;;;0.60;;
52294;SDS011;38243;53.212;6.574;2023-05-02T10:39:37;1.13;;;0.40;;
52294;SDS011;38243;53.212;6.574;2023-05-02T10:42:03;1.48;;;0.47;;
52294;SDS011;38243;53.212;6.574;2023-05-02T10:44:31;1.73;;;0.57;;
52294;SDS011;38243;53.212;6.574;2023-05-02T10:47:00;1.60;;;0.65;;
52294;SDS011;38243;53.212;6.574;2023-05-02T10:49:53;1.75;;;0.70;;
52294;SDS011;38243;53.212;6.574;2023-05-02T10:52:31;2.53;;;0.50;;
52294;SDS011;38243;53.212;6.574;2023-05-02T10:55:21;2.13;;;0.50;;
52294;SDS011;38243;53.212;6.574;2023-05-02T11:00:24;1.60;;;0.60;;
52294;SDS011;38243;53.212;6.574;2023-05-02T11:02:50;2.80;;;0.65;;
52294;SDS011;38243;53.212;6.574;2023-05-02T11:05:16;1.38;;;0.40;;
52294;SDS011;38243;53.212;6.574;2023-05-02T11:07:42;1.73;;;0.60;;
52294;SDS011;38243;53.212;6.574;2023-05-02T11:12:46;2.00;;;0.70;;
52294;SDS011;38243;53.212;6.574;2023-05-02T11:20:23;2.08;;;0.50;;
52294;SDS011;38243;53.212;6.574;2023-05-02T11:22:49;1.23;;;0.40;;
52294;SDS011;38243;53.212;6.574;2023-05-02T11:25:34;1.92;;;0.50;;
52294;SDS011;38243;53.212;6.574;2023-05-02T11:28:01;0.90;;;0.50;;
52294;SDS011;38243;53.212;6.574;2023-05-02T11:30:41;0.90;;;0.40;;
52294;SDS011;38243;53.212;6.574;2023-05-02T11:35:35;2.17;;;0.50;;
52294;SDS011;38243;53.212;6.574;2023-05-02T11:38:10;2.22;;;0.73;;
52294;SDS011;38243;53.212;6.574;2023-05-02T11:40:37;2.20;;;0.40;;
52294;SDS011;38243;53.212;6.574;2023-05-02T11:43:13;1.52;;;0.50;;
52294;SDS011;38243;53.212;6.574;2023-05-02T11:45:40;1.13;;;0.57;;
52294;SDS011;38243;53.212;6.574;2023-05-02T11:48:07;2.03;;;0.63;;
52294;SDS011;38243;53.212;6.574;2023-05-02T11:50:44;1.27;;;0.60;;
52294;SDS011;38243;53.212;6.574;2023-05-02T11:53:11;0.95;;;0.40;;
52294;SDS011;38243;53.212;6.574;2023-05-02T11:55:49;1.52;;;0.50;;
52294;SDS011;38243;53.212;6.574;2023-05-02T11:58:17;1.23;;;0.40;;
52294;SDS011;38243;53.212;6.574;2023-05-02T12:00:44;1.00;;;0.40;;
52294;SDS011;38243;53.212;6.574;2023-05-02T12:03:30;0.95;;;0.40;;
52294;SDS011;38243;53.212;6.574;2023-05-02T12:06:07;1.00;;;0.50;;
52294;SDS011;38243;53.212;6.574;2023-05-02T12:08:38;1.40;;;0.50;;
52294;SDS011;38243;53.212;6.574;2023-05-02T12:11:05;1.67;;;0.45;;
52294;SDS011;38243;53.212;6.574;2023-05-02T12:13:31;1.10;;;0.30;;
52294;SDS011;38243;53.212;6.574;2023-05-02T12:15:57;0.80;;;0.30;;
52294;SDS011;38243;53.212;6.574;2023-05-02T12:18:23;1.67;;;0.45;;
52294;SDS011;38243;53.212;6.574;2023-05-02T12:20:51;1.07;;;0.40;;
52294;SDS011;38243;53.212;6.574;2023-05-02T12:23:19;2.08;;;0.40;;
52294;SDS011;38243;53.212;6.574;2023-05-02T12:25:46;1.40;;;0.20;;
52294;SDS011;38243;53.212;6.574;2023-05-02T12:28:13;1.00;;;0.30;;
52294;SDS011;38243;53.212;6.574;2023-05-02T12:30:41;1.70;;;0.35;;
52294;SDS011;38243;53.212;6.574;2023-05-02T12:33:07;1.07;;;0.30;;
52294;SDS011;38243;53.212;6.574;2023-05-02T12:35:33;1.05;;;0.28;;
52294;SDS011;38243;53.212;6.574;2023-05-02T12:38:13;1.05;;;0.30;;
52294;SDS011;38243;53.212;6.574;2023-05-02T12:40:46;1.70;;;0.40;;
52294;SDS011;38243;53.212;6.574;2023-05-02T12:43:16;1.05;;;0.30;;
52294;SDS011;38243;53.212;6.574;2023-05-02T12:45:42;0.60;;;0.40;;
52294;SDS011;38243;53.212;6.574;2023-05-02T12:50:46;0.83;;;0.30;;
52294;SDS011;38243;53.212;6.574;2023-05-02T12:53:13;0.90;;;0.30;;
52294;SDS011;38243;53.212;6.574;2023-05-02T12:55:39;2.80;;;0.70;;
52294;SDS011;38243;53.212;6.574;2023-05-02T12:58:09;1.10;;;0.35;;
52294;SDS011;38243;53.212;6.574;2023-05-02T13:00:41;3.67;;;0.68;;
52294;SDS011;38243;53.212;6.574;2023-05-02T13:03:08;6.85;;;1.00;;
52294;SDS011;38243;53.212;6.574;2023-05-02T13:05:34;1.67;;;0.30;;
52294;SDS011;38243;53.212;6.574;2023-05-02T13:08:00;3.55;;;0.30;;
52294;SDS011;38243;53.212;6.574;2023-05-02T13:10:26;2.70;;;0.40;;
52294;SDS011;38243;53.212;6.574;2023-05-02T13:12:53;2.80;;;0.50;;
52294;SDS011;38243;53.212;6.574;2023-05-02T13:15:19;0.90;;;0.30;;
52294;SDS011;38243;53.212;6.574;2023-05-02T13:17:45;2.37;;;0.60;;
52294;SDS011;38243;53.212;6.574;2023-05-02T13:20:12;4.03;;;0.67;;
52294;SDS011;38243;53.212;6.574;2023-05-02T13:22:38;4.10;;;0.60;;
52294;SDS011;38243;53.212;6.574;2023-05-02T13:25:04;5.82;;;1.08;;
52294;SDS011;38243;53.212;6.574;2023-05-02T13:27:31;6.47;;;0.85;;
52294;SDS011;38243;53.212;6.574;2023-05-02T13:29:58;7.55;;;1.20;;
52294;SDS011;38243;53.212;6.574;2023-05-02T13:32:25;9.63;;;1.00;;
52294;SDS011;38243;53.212;6.574;2023-05-02T13:34:52;9.25;;;1.10;;
52294;SDS011;38243;53.212;6.574;2023-05-02T13:37:18;3.65;;;0.60;;
52294;SDS011;38243;53.212;6.574;2023-05-02T13:39:44;6.63;;;0.97;;
52294;SDS011;38243;53.212;6.574;2023-05-02T13:42:10;8.18;;;0.70;;
52294;SDS011;38243;53.212;6.574;2023-05-02T13:44:36;3.97;;;0.52;;
52294;SDS011;38243;53.212;6.574;2023-05-02T13:47:01;4.23;;;0.70;;
52294;SDS011;38243;53.212;6.574;2023-05-02T13:49:28;3.40;;;0.40;;
52294;SDS011;38243;53.212;6.574;2023-05-02T13:51:54;3.58;;;0.50;;
52294;SDS011;38243;53.212;6.574;2023-05-02T13:54:20;1.77;;;0.60;;
52294;SDS011;38243;53.212;6.574;2023-05-02T13:56:46;3.65;;;0.50;;
52294;SDS011;38243;53.212;6.574;2023-05-02T13:59:11;2.20;;;0.47;;
52294;SDS011;38243;53.212;6.574;2023-05-02T14:01:37;1.42;;;0.40;;
52294;SDS011;38243;53.212;6.574;2023-05-02T14:04:05;3.25;;;0.52;;
52294;SDS011;38243;53.212;6.574;2023-05-02T14:06:33;2.55;;;0.40;;
52294;SDS011;38243;53.212;6.574;2023-05-02T14:08:59;1.83;;;0.50;;
52294;SDS011;38243;53.212;6.574;2023-05-02T14:11:25;1.83;;;0.40;;
52294;SDS011;38243;53.212;6.574;2023-05-02T14:13:51;1.60;;;0.43;;
52294;SDS011;38243;53.212;6.574;2023-05-02T14:16:17;1.90;;;0.40;;
52294;SDS011;38243;53.212;6.574;2023-05-02T14:18:43;1.80;;;0.80;;
52294;SDS011;38243;53.212;6.574;2023-05-02T14:21:14;1.30;;;0.50;;
52294;SDS011;38243;53.212;6.574;2023-05-02T14:23:40;1.27;;;0.60;;
52294;SDS011;38243;53.212;6.574;2023-05-02T14:26:06;2.60;;;0.50;;
52294;SDS011;38243;53.212;6.574;2023-05-02T14:28:31;1.70;;;0.50;;
52294;SDS011;38243;53.212;6.574;2023-05-02T14:30:57;1.70;;;0.50;;
52294;SDS011;38243;53.212;6.574;2023-05-02T14:33:23;2.17;;;0.60;;
52294;SDS011;38243;53.212;6.574;2023-05-02T14:35:49;2.38;;;0.55;;
52294;SDS011;38243;53.212;6.574;2023-05-02T14:38:15;1.63;;;0.45;;
52294;SDS011;38243;53.212;6.574;2023-05-02T14:40:40;2.00;;;0.40;;
52294;SDS011;38243;53.212;6.574;2023-05-02T14:43:06;2.13;;;0.50;;
52294;SDS011;38243;53.212;6.574;2023-05-02T14:45:32;1.60;;;0.47;;
52294;SDS011;38243;53.212;6.574;2023-05-02T14:47:58;1.40;;;0.60;;
52294;SDS011;38243;53.212;6.574;2023-05-02T14:50:24;2.15;;;0.70;;
52294;SDS011;38243;53.212;6.574;2023-05-02T14:52:50;1.85;;;0.40;;
52294;SDS011;38243;53.212;6.574;2023-05-02T14:55:16;1.77;;;0.70;;
52294;SDS011;38243;53.212;6.574;2023-05-02T14:57:42;1.60;;;0.63;;
52294;SDS011;38243;53.212;6.574;2023-05-02T15:00:08;2.72;;;0.70;;
52294;SDS011;38243;53.212;6.574;2023-05-02T15:02:34;1.75;;;0.70;;
52294;SDS011;38243;53.212;6.574;2023-05-02T15:05:01;2.00;;;0.60;;
52294;SDS011;38243;53.212;6.574;2023-05-02T15:07:27;2.13;;;0.50;;
52294;SDS011;38243;53.212;6.574;2023-05-02T15:09:53;1.40;;;0.43;;
52294;SDS011;38243;53.212;6.574;2023-05-02T15:12:19;1.75;;;0.50;;
52294;SDS011;38243;53.212;6.574;2023-05-02T15:14:44;1.97;;;0.53;;
52294;SDS011;38243;53.212;6.574;2023-05-02T15:17:10;1.83;;;0.50;;
52294;SDS011;38243;53.212;6.574;2023-05-02T15:19:37;1.42;;;0.45;;
52294;SDS011;38243;53.212;6.574;2023-05-02T15:22:03;2.35;;;0.50;;
52294;SDS011;38243;53.212;6.574;2023-05-02T15:24:28;1.47;;;0.40;;
52294;SDS011;38243;53.212;6.574;2023-05-02T15:26:54;1.55;;;0.40;;
52294;SDS011;38243;53.212;6.574;2023-05-02T15:29:20;1.60;;;0.40;;